Weather observations for the past three days for
Sikeston Memorial Municipal Airport
Metric (Imperial)
Date Time (cdt) Wind (kph) Vis. (km) Weather Sky Cond. Temperature (ºC) Relative Humidity Wind Chill (°C) Heat Index (°C) Pressure Precipitation (cm)
Air Dwpt 6 hour altimeter (cm) sea level (mb) 1 hr 3 hr 6 hr
Max. Min.
08 06:55 Calm 14.48 NULL NULL 11.3 8.1 12.8 8 81% 76.2 0.0
08 06:35 Calm 16.09 NULL NULL 9.1 7.9 92% 76.17 0.0
08 06:15 S 6 16.09 NULL NULL 11.3 6.5 73% 76.15 0.0
08 05:55 S 6 16.09 NULL NULL 10 7 82% 76.12 0.0
08 05:35 Calm 16.09 NULL NULL 8.2 7.3 94% 76.12 0.0
08 05:15 Calm 16.09 NULL NULL 8.6 7.2 91% 76.12 0.0
08 04:55 Calm 16.09 NULL NULL 10.1 6.2 77% 76.12 0.0
08 04:35 S 6 16.09 NULL NULL 11 6.2 73% 76.12 0.0
08 03:55 S 7 16.09 NULL NULL 11.6 5.7 67% 76.12 0.0
08 03:35 S 7 16.09 NULL NULL 11.3 5.9 70% 76.12 0.0
08 03:15 S 6 16.09 NULL NULL 11.6 6 69% 76.15 0.0
08 02:55 S 7 16.09 NULL NULL 12.6 5.2 61% 76.15 0.0
08 02:35 Vrbl 7 16.09 NULL NULL 12.8 5.3 61% 76.17 0.0
08 02:15 S 7 16.09 NULL NULL 12.5 5.6 63% 76.17 0.0
08 01:55 S 7 16.09 NULL NULL 12.4 5.6 63% 76.17 0.0
08 01:35 S 7 16.09 NULL NULL 11.8 5.8 67% 76.2 0.0
08 01:15 S 6 16.09 NULL NULL 9 7.8 92% 76.2 0.0
08 00:55 Calm 16.09 NULL NULL 9.6 7.7 17.9 9.5 88% 76.2 0.0
08 00:35 Calm 16.09 NULL NULL 9.9 8 88% 76.2 0.0
08 00:15 S 6 16.09 NULL NULL 13 5.3 60% 76.2 0.0
07 23:55 S 6 16.09 NULL NULL 13.4 5.1 57% 76.2 0.0
07 23:35 S 7 16.09 NULL NULL 13.4 5.1 57% 76.2 0.0
07 23:15 S 6 16.09 NULL NULL 13.1 5.2 59% 76.2 0.0
07 22:55 S 7 16.09 NULL NULL 13.5 5.3 58% 76.23 0.0
07 22:35 S 9 16.09 NULL NULL 13.6 5.4 58% 76.23 0.0
07 22:15 S 11 16.09 NULL NULL 13.4 5.3 58% 76.2 0.0
07 21:55 SE 6 16.09 NULL NULL 12.7 6.8 68% 76.2 0.0
07 21:35 S 7 16.09 NULL NULL 13 6.8 66% 76.17 0.0
07 21:15 S 6 16.09 NULL NULL 12.9 8.5 75% 76.17 0.0
07 20:55 S 6 16.09 NULL NULL 14.9 4.5 50% 76.17 0.0
07 20:35 S 7 14.48 NULL NULL 15.2 4.4 49% 76.15 0.0
07 20:15 S 7 12.87 NULL NULL 15.4 4.7 49% 76.15 0.0
07 19:55 S 7 12.87 NULL NULL 16.4 4.1 44% 76.12 0.0
07 19:35 S 6 9.66 Haze NULL 16.9 3.5 41% 76.12 0.0
07 19:15 S 7 9.66 Haze NULL 17.5 3.3 39% 76.12 0.0
07 18:55 S 6 11.27 NULL NULL 18.3 3.4 19.6 17.6 37% 76.12 0.0
07 18:35 Vrbl 6 12.87 NULL NULL 18.6 2.6 35% 76.12 0.0
07 18:15 W 6 16.09 NULL NULL 18.7 2.3 34% 76.12 0.0
07 17:55 Vrbl 9 16.09 NULL NULL 19 2.8 34% 76.15 0.0
07 17:35 NW 6 16.09 NULL NULL 19.1 2.9 34% 76.15 0.0
07 17:15 Calm 12.87 NULL NULL 19.5 1.8 31% 76.15 0.0
07 16:55 Vrbl 6 16.09 NULL NULL 18.9 1.1 30% 76.15 0.0
07 16:35 W 7 16.09 NULL NULL 19.2 1.4 31% 76.17 0.0
07 16:15 W 13 16.09 NULL NULL 19.3 2.3 32% 76.17 0.0
07 15:15 W 13 16.09 NULL NULL 19 3.5 36% 76.2 0.0
07 14:55 W 13 16.09 NULL NULL 18.8 3.3 36% 76.2 0.0
07 14:35 SW 9 14.48 NULL NULL 18.8 3.3 36% 76.23 0.0
07 14:15 Vrbl 11 14.48 NULL NULL 18.6 2.9 35% 76.23 0.0
07 13:55 W 13 16.09 NULL NULL 18.6 3.7 37% 76.25 0.0
07 13:35 W 7 16.09 NULL NULL 17.9 2.8 37% 76.25 0.0
07 13:15 Vrbl 7 14.48 NULL NULL 17.7 3.4 39% 76.25 0.0
07 12:55 Vrbl 6 16.09 NULL NULL 17.9 2.2 17.9 8.2 35% 76.3 0.0
07 12:35 Calm 16.09 NULL NULL 17.4 1.6 35% 76.3 0.0
07 12:15 NW 11 16.09 NULL NULL 17.7 2.3 36% 76.33 0.0
07 11:55 NW 11 16.09 NULL NULL 16.9 1.5 36% 76.33 0.0
07 11:35 Vrbl 11 14.48 NULL NULL 17.2 2.5 38% 76.35 0.0
07 11:15 Calm 14.48 NULL NULL 16.5 1.6 37% 76.35 0.0
07 10:55 Vrbl 7 11.27 NULL NULL 16.5 3.3 42% 76.38 0.0
07 10:35 Calm 11.27 NULL NULL 16.2 2.9 41% 76.38 0.0
07 10:15 NE 6 12.87 NULL NULL 15.4 3.3 45% 76.38 0.0
07 09:55 E 6 16.09 NULL NULL 15.3 3.5 45% 76.38 0.0
07 09:35 E 6 16.09 NULL NULL 15 3.7 47% 76.38 0.0
07 09:15 E 9 16.09 NULL NULL 14.1 3.7 50% 76.38 0.0
07 08:55 E 9 16.09 NULL NULL 13.4 5.5 59% 76.38 0.0
07 08:35 E 13 16.09 NULL NULL 12.7 5.5 62% 76.38 0.0
07 08:15 N 7 16.09 NULL NULL 11.8 6.9 72% 76.38 0.0
07 07:55 Vrbl 6 16.09 NULL NULL 10.7 8 84% 76.35 0.0
07 07:35 N 7 16.09 NULL NULL 9.7 8.3 91% 9 76.38 0.0
07 07:15 N 6 14.48 NULL NULL 8.8 8 95% 76.35 0.0
07 06:55 N 7 12.87 NULL NULL 7.7 7.1 10.4 6.3 96% 7 76.33 0.0
07 06:35 N 7 12.87 NULL NULL 6.9 6.8 99% 6 76.33 0.0
07 06:15 Calm 11.27 NULL NULL 6.4 6.4 100% 76.3 0.0
07 05:55 Calm 12.87 NULL NULL 6.9 6.6 98% 76.3 0.0
07 05:35 NW 6 14.48 NULL NULL 7.2 6.9 98% 76.3 0.0
07 05:15 Calm 12.87 NULL NULL 7.2 7.2 100% 76.3 0.0
07 04:55 NW 6 14.48 NULL NULL 7.4 7.2 99% 76.3 0.0
07 04:35 NW 6 14.48 NULL NULL 7.6 7.3 98% 76.3 0.0
07 04:15 Calm 14.48 NULL NULL 7.9 7.4 97% 76.3 0.0
07 03:55 NW 6 16.09 NULL NULL 7.7 7.3 97% 76.28 0.0
07 03:35 N 6 16.09 NULL NULL 8.4 7.7 95% 76.28 0.0
07 03:15 Calm 16.09 NULL NULL 8.8 7.8 94% 76.25 0.0
07 02:55 N 6 16.09 NULL NULL 8.7 8 95% 76.25 0.0
07 02:35 N 6 16.09 NULL NULL 8.5 7.9 96% 76.23 0.0
07 02:15 N 6 16.09 NULL NULL 9.2 8.2 94% 76.23 0.0
07 01:55 NW 6 16.09 NULL NULL 9.1 8.6 97% 76.23 0.0
07 01:35 Calm 16.09 NULL NULL 9.2 8.6 96% 76.23 0.0
07 01:15 Calm 16.09 NULL NULL 10 9 94% 76.23 0.0
07 00:55 Calm 16.09 NULL NULL 10 8.7 15.4 9.3 92% 76.25 0.0
07 00:35 Calm 16.09 NULL NULL 9.5 8.8 95% 76.25 0.0
07 00:15 Calm 16.09 NULL NULL 9.5 8.6 94% 76.23 0.0
06 23:55 Calm 16.09 NULL NULL 10.6 8.5 87% 76.23 0.0
06 23:35 Calm 16.09 NULL NULL 10.5 8.9 90% 76.23 0.0
06 23:15 Calm 16.09 NULL NULL 12.1 8.2 77% 76.23 0.0
06 22:55 N 6 16.09 NULL NULL 12.1 9.3 83% 76.2 0.0
06 22:35 NW 6 16.09 NULL NULL 12.6 7.5 71% 76.23 0.0
06 22:15 N 6 16.09 NULL NULL 12.3 9.4 83% 76.17 0.0
06 21:55 N 7 16.09 NULL NULL 12.5 8.7 78% 76.2 0.0
06 21:35 N 7 16.09 NULL NULL 12.6 8.5 76% 76.2 0.0
06 21:15 N 9 14.48 Light Rain NULL 13.1 8.1 72% 76.15 0.0
06 20:55 Calm 16.09 NULL NULL 13.6 9.1 74% 76.23 0.0
06 20:35 N 6 16.09 NULL NULL 13.7 8.3 70% 76.2 0.0
06 20:15 N 6 16.09 NULL NULL 14.2 8.5 69% 76.17 0.0
06 19:55 Calm 16.09 NULL NULL 14.5 9.2 71% 76.17 0.0
06 19:35 Calm 16.09 NULL NULL 14.9 7.8 63% 76.17 0.0
06 19:15 N 9 16.09 NULL NULL 15.1 7.2 59% 76.12 0.0
06 18:55 N 13 16.09 NULL NULL 15.3 7 16.4 14.7 58% 76.12 0.0
06 18:35 N 13 16.09 NULL NULL 15.5 6.3 55% 76.07 0.0
06 18:15 N 15 16.09 NULL NULL 15.8 6.6 55% 76.05 0.0
06 17:55 N 13 16.09 NULL NULL 16.1 7.9 59% 76.05 0.0
06 17:35 N 7 16.09 NULL NULL 16.1 7.9 59% 76.05 0.0
06 17:15 N 13 16.09 NULL NULL 16.1 7.1 55% 76.07 0.0
06 16:55 Vrbl 9 16.09 NULL NULL 16.4 7.3 55% 76.1 0.0
06 16:35 N 9 16.09 NULL NULL 15.8 6.5 54% 76.1 0.0
06 16:15 N 13 16.09 NULL NULL 15.6 6.2 54% 76.15 0.0
06 15:55 N 9 16.09 NULL NULL 15 6.5 57% 76.17 0.0
06 15:35 NE 9 16.09 NULL NULL 15.6 6.8 56% 76.2 0.0
06 15:15 N 11 16.09 NULL NULL 14.9 6.9 59% 76.17 0.0
06 14:55 NE 13 16.09 NULL NULL 14.9 7 59% 76.12 0.0
06 14:35 N 11 16.09 NULL NULL 15.1 7.3 60% 76.17 0.0
06 14:15 NE 11 16.09 NULL NULL 14.8 7.4 61% 76.2 0.0
06 13:55 N 13 16.09 NULL NULL 15 7.1 59% 76.15 0.0
06 13:35 N 19 16.09 NULL NULL 15.4 7.3 59% 76.15 0.0
06 13:15 N 19 16.09 NULL NULL 15.3 6.4 56% 76.15 0.0
06 12:55 NE 17 16.09 NULL NULL 15.3 6.9 15.3 8.9 58% 76.15 0.0
06 12:35 NE 9 16.09 NULL NULL 15 6.6 57% 76.17 0.0
06 12:15 N 17 16.09 NULL NULL 14.5 6.6 59% 76.23 0.0
06 11:55 N 19 16.09 NULL NULL 13.7 6.9 64% 76.2 0.0
06 11:35 NE 15 16.09 NULL NULL 13.4 6.7 64% 76.17 0.0
06 11:15 N 20 16.09 NULL NULL 13.2 7.2 67% 76.17 0.0
06 10:55 N 13 16.09 NULL NULL 12.9 8 72% 76.17 0.0
06 10:35 N 15 16.09 NULL NULL 12.4 8 75% 76.2 0.0
06 10:15 N 15 16.09 NULL NULL 12.6 8.5 76% 76.2 0.0
06 09:55 N 13 16.09 NULL NULL 11.7 8.6 81% 76.17 0.0
06 09:35 N 19 16.09 NULL NULL 11.6 8.3 80% 76.2 0.0
06 09:15 N 17 16.09 NULL NULL 11.8 8.3 79% 76.15 0.0
06 08:55 N 15 16.09 NULL NULL 11.9 8 77% 76.1 0.0
06 08:35 N 19 16.09 NULL NULL 11.3 8.4 83% 76.1 0.0
06 08:15 N 15 16.09 NULL NULL 10.9 8.8 87% 76.07 0.0
06 07:55 N 15 16.09 NULL NULL 9.9 8.9 94% 8 76.02 0.0
06 07:35 N 13 14.48 NULL NULL 9.4 8.7 95% 8 76.02 0.0
06 07:15 N 13 14.48 NULL NULL 9.1 8.8 98% 7 76.02 0.0
06 06:55 N 13 14.48 NULL NULL 8.8 8.5 9.6 8.1 98% 7 76 0.0 0.18
06 06:35 N 7 16.09 NULL NULL 8.7 8.6 99% 8 76 0.0
06 06:15 N 11 14.48 NULL NULL 8.5 8.3 99% 7 75.95 0.0
06 05:55 N 9 16.09 NULL NULL 8.4 8.3 99% 7 75.95 0.0
06 05:35 N 13 16.09 NULL NULL 8.3 8.2 99% 6 75.95 0.0
06 05:15 N 9 16.09 NULL NULL 8.2 8.1 99% 7 75.95 0.0
06 04:55 N 15 16.09 NULL NULL 8.3 8 98% 6 75.95 0.0
06 04:35 N 15 16.09 NULL NULL 8.3 7.7 96% 6 75.95 0.0
06 04:15 NE 15 14.48 Light Rain NULL 8.2 7.7 97% 6 75.9 0.0
06 03:55 N 19 12.87 Light Rain NULL 8.2 8 99% 6 75.87 0.0 0.13 0.18
06 03:35 NE 19 G 31 9.66 Light Rain Fog/Mist NULL 8.3 8 98% 6 75.87 0.0 0.13
06 03:15 N 19 12.87 Light Rain NULL 8.5 8.5 100% 6 75.9 0.0 0.05
06 02:55 N 13 16.09 NULL NULL 8.7 8.7 100% 7 75.79 0.0
06 02:35 N 17 16.09 NULL NULL 8.7 8.7 100% 6 75.79 0.0
06 02:15 N 22 16.09 NULL NULL 8.8 8.7 99% 6 75.82 0.0
06 01:55 N 22 16.09 NULL NULL 9.3 9.3 100% 7 75.84 0.0 0.05
06 00:55 NW 20 9.66 Light Rain Fog/Mist NULL 9.8 9.8 12.4 9.8 100% 7 75.9 0.0 0.03 0.74
06 00:35 NW 19 16.09 NULL NULL 9.9 9.9 100% 8 75.82 0.0
06 00:15 N 20 12.87 Light Rain NULL 10 10 100% 8 75.69 0.0
05 23:55 N 15 12.87 Light Rain NULL 10.1 10.1 100% 75.72 0.0
05 23:35 N 26 G 33 14.48 NULL NULL 10 10 100% 7 75.69 0.0
05 23:15 N 26 G 35 16.09 NULL NULL 10 10 100% 7 75.72 0.0
05 22:55 N 24 11.27 Light Rain NULL 10.3 10.3 100% 75.72 0.0 0.03
05 22:35 N 17 8.05 Light Rain Fog/Mist NULL 10.4 10.4 100% 75.72 0.0 0.03
05 22:15 N 19 11.27 Light Rain NULL 10.5 10.5 100% 75.72 0.0
05 21:55 N 19 G 31 9.66 Light Rain Fog/Mist NULL 10.5 10.5 100% 75.69 0.0 0.15 0.69
05 21:35 N 20 8.05 Light Rain Fog/Mist NULL 10.7 10.7 100% 75.67 0.0 0.08
05 21:15 N 19 8.05 Light Rain Fog/Mist NULL 11 11 100% 75.64 0.0 0.03
05 20:55 N 17 9.66 Light Rain Fog/Mist NULL 11.7 11.7 100% 75.62 0.0 0.46
05 20:35 N 19 6.44 Light Rain Fog/Mist NULL 11.7 11.7 100% 75.59 0.0 0.43
05 20:15 N 15 4.83 Light Rain Fog/Mist NULL 12.1 12.1 100% 75.57 0.0 0.1
05 19:55 NE 11 6.44 Light Rain Fog/Mist NULL 12.2 12.2 100% 75.51 0.0 0.08
05 19:35 N 15 9.66 Fog/Mist NULL 12.2 12.2 100% 75.51 0.0 0.08
05 19:15 N 17 9.66 Light Rain Fog/Mist NULL 12.3 12.3 100% 75.51 0.0 0.05
05 18:55 N 15 2.41 Light Rain Fog/Mist NULL 12.7 12.7 17.8 12.6 100% 75.54 0.0 0.1 0.84
05 18:35 N 15 8.05 Fog/Mist NULL 12.7 12.7 100% 75.54 0.0 0.03
05 18:15 NE 19 6.44 Light Rain Fog/Mist NULL 12.8 12.8 100% 75.46 0.0 0.03
05 17:55 N 19 4.02 Light Rain Fog/Mist NULL 12.9 12.9 100% 75.54 0.0 0.33
05 17:35 N 19 3.22 Light Rain Fog/Mist NULL 13.3 13.3 100% 75.54 0.0 0.3
05 17:15 N 20 2.82 Light Rain Fog/Mist NULL 13.8 13.8 100% 75.57 0.0 0.25
05 16:55 NW 17 4.02 Light Rain Fog/Mist NULL 17.2 17.2 100% 75.51 0.0 0.18
05 16:35 SW 11 4.02 Light Rain Fog/Mist NULL 17.4 17.4 100% 75.51 0.0 0.13
05 16:15 SW 11 4.83 Light Rain Fog/Mist NULL 17.4 17.4 100% 75.51 0.0 0.08
05 15:55 SW 17 6.44 Light Rain Fog/Mist NULL 17.5 17.5 100% 75.54 0.0 0.08 0.23
05 15:35 S 15 6.44 Light Rain Fog/Mist NULL 17.5 17.5 100% 75.51 0.0 0.05
05 15:15 SW 13 6.44 Light Rain Fog/Mist NULL 17.5 17.5 100% 75.54 0.0 0.03
05 14:55 SW 13 4.02 Light Rain Fog/Mist NULL 17.5 17.5 100% 75.54 0.0 0.13
05 14:35 S 13 4.83 Light Rain Fog/Mist NULL 17.5 17.5 100% 75.54 0.0 0.1
05 14:15 S 15 6.44 Light Rain Fog/Mist NULL 17.7 17.7 100% 75.57 0.0 0.05
05 13:55 S 13 6.44 Light Rain Fog/Mist NULL 17.4 17.4 100% 75.57 0.0 0.03
05 13:35 S 9 8.05 Fog/Mist NULL 17.5 17.5 100% 75.57 0.0 0.03
05 13:15 S 13 6.44 Fog/Mist NULL 17.5 17.5 100% 75.54 0.0
05 12:55 S 13 6.44 Light Rain Fog/Mist NULL 17.4 17.4 18.7 15.6 100% 75.57 0.0 0.08 0.66
05 12:35 S 15 6.44 Light Rain Fog/Mist NULL 17.2 17.2 100% 75.59 0.0 0.05
05 12:15 S 9 8.05 Light Rain Fog/Mist NULL 17.2 17.2 100% 75.62 0.0 0.03
05 11:55 S 7 9.66 Light Rain Fog/Mist NULL 17 17 100% 75.64 0.0 0.05
05 11:35 S 9 14.48 NULL NULL 16.9 16.9 100% 75.64 0.0 0.05
05 11:15 S 9 6.44 Light Rain Fog/Mist NULL 16.9 16.9 100% 75.64 0.0 0.05
05 10:55 S 11 8.05 Light Rain Fog/Mist NULL 17.1 17 99% 75.64 0.0 0.03
05 10:35 S 11 14.48 NULL NULL 17.3 16.8 97% 75.64 0.0
05 10:15 S 9 14.48 NULL NULL 17.3 16.8 97% 75.64 0.0
05 09:55 S 11 16.09 NULL NULL 17.4 17.1 98% 75.67 0.0 0.51
05 09:35 S 11 12.87 NULL NULL 17 16.8 99% 75.67 0.0
05 09:15 S 13 14.48 NULL NULL 16.7 16.7 100% 75.64 0.0
05 08:55 S 17 14.48 NULL NULL 16.3 16.3 100% 75.62 0.0 0.1
05 08:35 S 17 14.48 Light Rain NULL 16 16 100% 75.64 0.0 0.1
05 08:15 S 11 8.05 Light Rain Fog/Mist NULL 15.9 15.9 100% 75.64 0.0 0.1
05 07:55 SW 13 G 33 1.61 Light Rain Fog/Mist NULL 15.7 15.7 100% 75.64 0.0 0.41
05 07:35 SW 9 6.44 Light Rain Fog/Mist Thunderstorm in Vicinity NULL 16.6 15.4 93% 75.64 0.0
05 07:15 SW 15 11.27 Light Rain Thunderstorm in Vicinity NULL 17.9 13.7 77% 75.62 0.0
Date Time (cdt) Wind (kph) Vis. (km) Weather Sky Cond. Air Dwpt Max. Min. Relative Humidity Wind Chill (°C) Heat Index (°C) altimeter (cm) sea level (mb) 1 hr 3 hr 6 hr
6 hour
Temperature (ºC) Pressure Precipitation (cm)